Time;durP1;ratioP1;P1;durP2;ratioP2;P2;SDS_P1;SDS_P2;PMS_P1;PMS_P2;Temp;Humidity;BMP_temperature;BMP_pressure;BME280_temperature;BME280_humidity;BME280_pressure;Samples;Min_cycle;Max_cycle;Signal;HPM_P1;HPM_P2
2022/08/12 00:43:49;;;;;;;3.75;2.80;;;;;;;13.99;80.51;95848.44;1736609;83;21034;-72
2022/08/12 00:46:31;;;;;;;5.40;2.20;;;;;;;13.98;80.59;95849.33;1736510;83;21541;-72
2022/08/12 00:49:00;;;;;;;4.28;2.40;;;;;;;13.89;80.02;95846.95;1736543;83;21047;-71
2022/08/12 00:54:17;;;;;;;4.12;2.47;;;;;;;13.80;79.73;95848.05;1736715;83;21450;-72
2022/08/12 00:56:45;;;;;;;3.20;2.42;;;;;;;13.72;79.58;95850.52;1736142;82;21035;-72
2022/08/12 00:59:12;;;;;;;3.75;2.45;;;;;;;13.72;79.94;95855.36;1715871;83;21028;-71
2022/08/12 01:01:44;;;;;;;2.98;2.37;;;;;;;13.69;79.87;95854.13;1736380;83;20998;-71
2022/08/12 01:12:22;;;;;;;4.30;2.27;;;;;;;13.59;80.40;95848.65;1742420;81;21026;-71
2022/08/12 01:14:52;;;;;;;4.10;2.77;;;;;;;13.64;80.26;95850.72;1763291;81;21058;-72
2022/08/12 01:17:21;;;;;;;5.70;2.35;;;;;;;13.58;80.16;95845.56;1763268;81;21488;-72
2022/08/12 01:19:51;;;;;;;2.15;1.90;;;;;;;13.55;80.05;95844.33;1763292;81;21058;-72
2022/08/12 01:22:32;;;;;;;2.47;1.90;;;;;;;13.51;79.96;95849.31;1763339;81;20955;-72
2022/08/12 01:25:11;;;;;;;3.50;2.15;;;;;;;13.38;80.42;95850.05;1763253;81;21038;-72
2022/08/12 01:27:39;;;;;;;2.92;2.20;;;;;;;13.35;80.61;95851.46;1762534;81;21473;-72
2022/08/12 01:30:10;;;;;;;2.83;2.20;;;;;;;13.31;80.17;95847.17;1763238;81;21026;-72
2022/08/12 01:32:40;;;;;;;3.45;2.20;;;;;;;13.32;80.40;95847.57;1763330;81;20987;-72
2022/08/12 01:35:12;;;;;;;2.62;2.02;;;;;;;13.29;80.25;95842.36;1763374;81;21461;-72
2022/08/12 01:38:01;;;;;;;2.62;1.92;;;;;;;13.19;80.49;95847.84;1763243;81;21509;-72
2022/08/12 01:40:34;;;;;;;3.52;2.27;;;;;;;13.13;80.91;95841.38;1763315;81;21022;-72
2022/08/12 01:43:11;;;;;;;3.12;1.98;;;;;;;13.08;80.96;95838.41;1763286;81;21477;-72
2022/08/12 01:45:58;;;;;;;4.95;2.27;;;;;;;13.06;81.50;95841.57;1763242;81;21046;-72
2022/08/12 01:49:05;;;;;;;4.25;2.10;;;;;;;13.02;82.05;95841.22;1763546;81;21034;-72
2022/08/12 01:51:42;;;;;;;5.00;1.95;;;;;;;12.96;81.69;95836.48;1763263;81;21062;-71
2022/08/12 01:54:16;;;;;;;5.87;2.08;;;;;;;12.99;81.57;95835.08;1763522;81;21014;-71
2022/08/12 01:57:09;;;;;;;2.92;2.10;;;;;;;13.01;81.21;95833.73;1763507;81;21006;-71
2022/08/12 02:00:03;;;;;;;4.33;1.92;;;;;;;13.01;81.40;95834.19;1763092;81;21003;-71
2022/08/12 02:02:53;;;;;;;3.25;2.58;;;;;;;12.94;80.41;95829.48;1762281;81;21027;-71
2022/08/12 02:12:01;;;;;;;3.85;2.92;;;;;;;12.71;81.08;95832.22;1763737;81;20995;-72
2022/08/12 02:15:11;;;;;;;3.30;2.62;;;;;;;12.67;81.46;95830.99;1736941;81;21054;-71
2022/08/12 02:17:55;;;;;;;4.60;2.20;;;;;;;12.60;82.36;95830.28;1736362;82;21079;-71
2022/08/12 02:21:00;;;;;;;2.85;2.20;;;;;;;12.55;81.91;95825.55;1736169;83;20987;-72
2022/08/12 02:23:27;;;;;;;2.60;2.40;;;;;;;12.65;82.21;95828.83;1736576;83;20960;-72
2022/08/12 02:26:03;;;;;;;2.83;2.22;;;;;;;12.62;81.27;95827.13;1715602;83;21074;-72
2022/08/12 02:28:30;;;;;;;3.02;2.60;;;;;;;12.59;81.16;95826.34;1736454;82;21054;-72
2022/08/12 02:31:04;;;;;;;2.50;2.20;;;;;;;12.51;82.12;95825.19;1736450;83;21034;-72
2022/08/12 02:33:32;;;;;;;;;;;;;;;12.46;81.72;95824.42;1739254;83;21476;-72
2022/08/12 02:36:02;;;;;;;2.75;2.40;;;;;;;12.43;81.89;95824.03;1736548;81;20130;-72
2022/08/12 02:38:30;;;;;;;4.30;3.15;;;;;;;12.47;82.29;95829.69;1736547;82;21042;-71
2022/08/12 02:41:00;;;;;;;5.00;3.10;;;;;;;12.45;81.98;95830.63;1736125;83;21079;-70
2022/08/12 02:43:42;;;;;;;7.35;4.03;;;;;;;12.45;82.67;95835.47;1736732;82;21489;-71
2022/08/12 02:46:12;;;;;;;5.25;3.40;;;;;;;12.46;82.78;95835.00;1736447;82;21051;-71
2022/08/12 02:48:56;;;;;;;3.15;2.85;;;;;;;12.45;82.87;95838.11;1736300;82;21095;-71
2022/08/12 02:51:36;;;;;;;5.30;3.17;;;;;;;12.45;82.64;95839.44;1736680;82;21035;-71
2022/08/12 02:54:06;;;;;;;4.72;2.72;;;;;;;12.45;82.64;95838.57;1736552;82;20991;-71
2022/08/12 02:56:37;;;;;;;5.42;3.37;;;;;;;12.42;82.21;95843.91;1736643;83;21023;-71
2022/08/12 02:59:09;;;;;;;3.30;2.92;;;;;;;12.45;82.84;95843.86;1736785;83;21477;-71
2022/08/12 03:01:49;;;;;;;6.87;2.85;;;;;;;12.45;82.54;95839.44;1736512;83;21015;-71
2022/08/12 03:04:28;;;;;;;3.95;2.60;;;;;;;12.46;82.58;95839.84;1737048;82;21019;-71
2022/08/12 03:07:13;;;;;;;6.28;2.55;;;;;;;12.46;82.11;95844.27;1712394;83;21019;-70
2022/08/12 03:10:08;;;;;;;2.55;2.35;;;;;;;12.36;81.92;95838.76;1711907;82;21612;-71
2022/08/12 03:12:40;;;;;;;3.65;2.50;;;;;;;12.26;81.66;95845.56;1738570;81;21070;-71
2022/08/12 03:15:12;;;;;;;2.65;2.22;;;;;;;12.23;82.08;95841.66;1763305;81;20986;-70
2022/08/12 03:18:17;;;;;;;4.83;2.35;;;;;;;12.27;82.22;95843.78;1763354;81;21497;-71
2022/08/12 03:20:45;;;;;;;2.33;1.92;;;;;;;12.25;81.88;95842.97;1763527;81;21540;-71
2022/08/12 03:23:15;;;;;;;4.25;2.27;;;;;;;12.20;82.05;95844.84;1763164;81;21062;-71
2022/08/12 03:25:43;;;;;;;3.62;2.40;;;;;;;12.18;82.24;95838.24;1763405;81;20983;-71
2022/08/12 03:28:49;;;;;;;5.33;2.72;;;;;;;12.21;82.71;95839.95;1763494;81;21030;-71
2022/08/12 03:30:42;;;;;;;4.25;2.77;;;;;;;12.28;82.84;95837.60;1759198;81;21074;-70
2022/08/12 03:33:12;;;;;;;8.58;2.72;;;;;;;12.32;82.57;95841.91;1763574;81;21014;-71
2022/08/12 03:35:41;;;;;;;5.58;2.50;;;;;;;12.38;82.63;95844.44;1763947;81;21030;-71
2022/08/12 03:38:10;;;;;;;2.72;2.42;;;;;;;12.40;82.19;95844.38;1763186;81;21074;-70
2022/08/12 04:00:56;;;;;;;6.08;2.50;;;;;;;12.20;82.23;95837.77;1763447;81;21034;-71
2022/08/12 04:06:09;;;;;;;3.58;2.55;;;;;;;12.26;82.57;95828.36;1763296;81;21015;-71
2022/08/12 04:08:38;;;;;;;9.20;2.98;;;;;;;12.31;83.25;95833.10;1763374;81;21087;-71
2022/08/12 04:13:50;;;;;;;3.77;2.22;;;;;;;12.63;83.33;95824.05;1763121;81;21033;-71
2022/08/12 04:16:18;;;;;;;4.90;2.62;;;;;;;12.79;82.88;95824.09;1763127;81;21101;-71
2022/08/12 04:18:46;;;;;;;3.80;2.65;;;;;;;12.90;82.43;95822.08;1763741;81;21047;-71
2022/08/12 04:21:12;;;;;;;3.60;2.20;;;;;;;13.02;82.15;95811.62;1763488;81;20983;-71
2022/08/12 04:23:43;;;;;;;3.60;2.30;;;;;;;13.10;81.50;95811.42;1763626;81;21029;-72
2022/08/12 04:26:10;;;;;;;3.70;2.55;;;;;;;13.17;81.35;95805.07;1763419;81;21445;-72
2022/08/12 04:28:37;;;;;;;5.60;2.40;;;;;;;13.24;80.88;95810.63;1763371;81;21031;-71
2022/08/12 04:31:04;;;;;;;2.77;2.45;;;;;;;13.32;81.33;95811.80;1763243;81;21027;-72
2022/08/12 04:33:31;;;;;;;3.12;2.25;;;;;;;13.34;80.40;95816.61;1763276;81;20998;-72
2022/08/12 04:35:58;;;;;;;3.47;2.50;;;;;;;13.34;80.15;95817.93;1763099;81;21054;-72
2022/08/12 04:38:26;;;;;;;3.10;2.20;;;;;;;13.30;80.32;95813.61;1763198;81;21022;-72
2022/08/12 04:40:54;;;;;;;3.17;2.40;;;;;;;13.31;80.74;95818.88;1763008;81;21110;-71
2022/08/12 04:43:20;;;;;;;3.37;2.58;;;;;;;13.37;81.07;95822.69;1763329;81;21495;-71
2022/08/12 04:45:48;;;;;;;3.10;2.30;;;;;;;13.54;81.24;95819.60;1763557;81;20987;-71
2022/08/12 04:48:15;;;;;;;8.30;2.67;;;;;;;13.64;80.23;95819.77;1763351;81;21038;-72
2022/08/12 04:50:44;;;;;;;4.75;2.70;;;;;;;13.68;80.29;95820.54;1763620;81;21034;-71
2022/08/12 04:53:11;;;;;;;5.95;2.77;;;;;;;13.72;80.27;95825.33;1763324;81;21070;-72
2022/08/12 04:55:41;;;;;;;3.15;2.67;;;;;;;13.76;79.69;95823.87;1737631;81;20998;-71
2022/08/12 04:58:09;;;;;;;5.30;2.80;;;;;;;13.80;80.05;95828.16;1763345;81;20999;-71
2022/08/12 05:00:37;;;;;;;3.45;2.90;;;;;;;13.90;79.68;95827.92;1763451;81;21464;-71
2022/08/12 05:03:06;;;;;;;7.17;2.85;;;;;;;13.94;79.54;95819.84;1763101;81;20983;-71
2022/08/12 05:05:35;;;;;;;4.30;2.70;;;;;;;14.03;79.67;95824.87;1763079;81;21725;-71
2022/08/12 05:08:03;;;;;;;6.50;2.77;;;;;;;14.14;79.53;95825.05;1763233;81;21011;-71
2022/08/12 05:10:30;;;;;;;5.78;2.42;;;;;;;14.25;79.47;95828.25;1764101;81;21527;-71
2022/08/12 05:13:00;;;;;;;3.02;2.60;;;;;;;14.36;79.18;95828.78;1763697;81;21007;-71
2022/08/12 05:15:27;;;;;;;3.20;2.25;;;;;;;14.43;78.70;95827.69;1763338;81;21479;-71
2022/08/12 05:17:54;;;;;;;2.92;2.60;;;;;;;14.53;78.62;95828.75;1763214;81;21561;-71
2022/08/12 05:20:21;;;;;;;2.90;2.40;;;;;;;14.64;78.51;95841.27;1763401;81;21528;-71
2022/08/12 05:22:49;;;;;;;7.70;2.62;;;;;;;14.75;77.98;95836.50;1762955;81;21026;-71
2022/08/12 05:25:15;;;;;;;4.55;3.22;;;;;;;14.79;76.90;95835.94;1763282;81;21533;-71
2022/08/12 05:27:44;;;;;;;5.37;2.67;;;;;;;14.86;76.98;95843.66;1763241;81;21027;-71
2022/08/12 05:30:13;;;;;;;6.10;3.40;;;;;;;14.97;77.24;95843.35;1762952;81;21054;-71
2022/08/12 05:32:39;;;;;;;7.92;3.02;;;;;;;15.10;77.14;95846.02;1763302;81;21006;-71
2022/08/12 05:35:07;;;;;;;14.30;3.52;;;;;;;15.25;76.79;95842.46;1763499;81;21019;-71
2022/08/12 05:37:34;;;;;;;4.80;3.02;;;;;;;15.39;76.41;95839.33;1763118;81;21076;-71
2022/08/12 05:40:04;;;;;;;5.80;3.20;;;;;;;15.48;75.08;95837.23;1763511;81;21580;-73
2022/08/12 05:42:31;;;;;;;3.17;2.62;;;;;;;15.64;75.62;95838.03;1763072;81;21081;-72
2022/08/12 05:44:59;;;;;;;6.20;3.05;;;;;;;15.77;75.00;95833.61;1763265;81;21467;-72
2022/08/12 05:47:27;;;;;;;6.55;2.77;;;;;;;15.89;75.23;95837.61;1763153;81;21050;-72
2022/08/12 05:49:54;;;;;;;4.80;2.80;;;;;;;16.03;75.41;95840.23;1763510;81;21110;-72
2022/08/12 05:52:21;;;;;;;4.08;2.98;;;;;;;16.20;75.41;95840.05;1762995;81;21023;-72
2022/08/12 05:54:47;;;;;;;4.65;2.83;;;;;;;16.31;74.09;95846.77;1763459;81;21536;-72
2022/08/12 05:57:14;;;;;;;4.25;2.92;;;;;;;16.44;74.87;95849.38;1763176;81;21050;-71
2022/08/12 05:59:41;;;;;;;5.90;2.33;;;;;;;16.60;74.35;95847.85;1763282;81;21026;-73
2022/08/12 06:02:10;;;;;;;2.62;2.42;;;;;;;16.75;74.09;95849.53;1763101;81;21039;-72
2022/08/12 06:04:39;;;;;;;2.40;2.20;;;;;;;16.92;73.97;95851.58;1763383;81;21021;-72
2022/08/12 06:07:07;;;;;;;3.87;2.60;;;;;;;17.06;73.01;95846.58;1763307;81;21002;-72
2022/08/12 06:09:34;;;;;;;4.28;2.90;;;;;;;17.17;72.73;95851.00;1763161;81;21034;-72
2022/08/12 06:12:01;;;;;;;3.33;2.62;;;;;;;17.28;71.91;95838.55;1763172;81;21543;-73
2022/08/12 06:14:28;;;;;;;3.95;2.55;;;;;;;17.39;71.50;95844.80;1749951;81;21007;-72
2022/08/12 06:16:55;;;;;;;3.20;2.37;;;;;;;17.49;70.59;95850.16;1736429;83;21477;-72
2022/08/12 06:19:24;;;;;;;2.90;2.60;;;;;;;17.57;70.29;95846.70;1736422;83;20995;-72
2022/08/12 06:21:50;;;;;;;3.33;2.60;;;;;;;17.65;69.53;95851.23;1736256;83;21102;-72
2022/08/12 06:24:18;;;;;;;3.72;1.95;;;;;;;17.72;70.16;95841.18;1736683;83;21488;-72
2022/08/12 06:26:45;;;;;;;3.40;2.47;;;;;;;17.78;68.86;95836.89;1736429;83;21042;-72
2022/08/12 06:29:18;;;;;;;4.28;2.72;;;;;;;17.82;67.75;95838.55;1736581;83;20991;-72
2022/08/12 06:31:41;;;;;;;4.45;2.85;;;;;;;17.90;68.35;95836.41;1735709;82;21089;-72
2022/08/12 06:34:08;;;;;;;5.50;2.77;;;;;;;18.00;67.52;95836.02;1736456;83;21505;-72
2022/08/12 06:36:35;;;;;;;2.62;2.30;;;;;;;18.05;66.80;95837.54;1736656;83;21007;-72
2022/08/12 06:39:02;;;;;;;2.90;2.70;;;;;;;18.16;67.15;95842.39;1736230;83;21071;-72
2022/08/12 06:44:19;;;;;;;2.70;2.50;;;;;;;18.34;66.32;95836.25;1736582;83;21004;-72
2022/08/12 06:46:44;;;;;;;4.42;2.95;;;;;;;18.37;64.93;95837.44;1735838;82;21584;-72
2022/08/12 06:49:12;;;;;;;2.60;2.30;;;;;;;18.47;65.91;95840.56;1736572;83;21050;-72
2022/08/12 06:51:39;;;;;;;3.25;2.70;;;;;;;18.51;65.25;95833.27;1736762;83;20964;-72
2022/08/12 06:54:06;;;;;;;2.90;2.60;;;;;;;18.57;65.47;95833.86;1736270;82;21011;-72
2022/08/12 06:56:33;;;;;;;6.85;2.80;;;;;;;18.69;65.19;95828.86;1736698;83;20971;-72
2022/08/12 06:59:01;;;;;;;2.90;2.60;;;;;;;18.79;65.28;95831.05;1736506;83;21489;-72
2022/08/12 07:01:30;;;;;;;3.25;2.87;;;;;;;18.90;65.09;95831.91;1736335;83;21035;-72
2022/08/12 07:03:56;;;;;;;4.87;2.58;;;;;;;18.98;64.53;95835.08;1736662;82;21023;-72
2022/08/12 07:06:24;;;;;;;3.25;2.70;;;;;;;19.09;62.80;95832.35;1736469;82;21126;-73
2022/08/12 07:08:50;;;;;;;3.20;2.40;;;;;;;19.19;63.74;95831.82;1736211;83;21043;-72
2022/08/12 07:11:17;;;;;;;2.77;2.30;;;;;;;19.29;63.22;95827.38;1736654;83;21042;-72
2022/08/12 07:13:49;;;;;;;4.65;2.67;;;;;;;19.42;63.73;95822.66;1738102;81;21019;-72
2022/08/12 07:16:18;;;;;;;3.92;2.77;;;;;;;19.55;63.97;95826.06;1763396;81;21030;-72
2022/08/12 07:18:49;;;;;;;4.28;2.83;;;;;;;19.64;62.89;95821.59;1763553;81;20983;-72
2022/08/12 07:21:15;;;;;;;2.87;2.47;;;;;;;19.69;60.94;95814.70;1763437;81;21058;-71
2022/08/12 07:23:42;;;;;;;6.03;2.95;;;;;;;19.75;60.65;95817.05;1763332;81;21058;-72
2022/08/12 07:26:15;;;;;;;3.27;2.60;;;;;;;19.81;60.81;95815.42;1763260;81;20975;-72
2022/08/12 07:28:42;;;;;;;5.17;3.20;;;;;;;19.88;60.78;95812.79;1762881;81;21608;-72
2022/08/12 07:31:11;;;;;;;2.80;2.60;;;;;;;19.99;61.74;95811.78;1763442;81;21031;-71
2022/08/12 07:33:40;;;;;;;2.65;2.33;;;;;;;20.15;61.60;95812.31;1762978;81;21042;-71
2022/08/12 07:36:12;;;;;;;3.30;2.80;;;;;;;20.26;61.03;95806.78;1763215;81;21429;-72
2022/08/12 07:38:44;;;;;;;5.90;2.75;;;;;;;20.36;60.84;95805.82;1763833;81;21007;-72
2022/08/12 07:41:24;;;;;;;5.55;2.52;;;;;;;20.42;59.08;95804.13;1763414;81;21006;-72
2022/08/12 07:43:58;;;;;;;4.05;2.52;;;;;;;20.48;59.77;95810.48;1763392;81;21088;-72
2022/08/12 07:46:35;;;;;;;4.08;2.58;;;;;;;20.65;60.53;95803.39;1763400;81;21043;-71
2022/08/12 07:49:12;;;;;;;4.03;2.40;;;;;;;20.81;59.82;95800.23;1763370;81;20984;-72
2022/08/12 07:51:41;;;;;;;3.00;2.65;;;;;;;20.94;57.55;95799.95;1763270;81;21098;-72
2022/08/12 07:54:10;;;;;;;3.22;2.30;;;;;;;21.10;59.06;95791.89;1763486;81;21010;-72
2022/08/12 07:56:40;;;;;;;3.33;2.50;;;;;;;21.24;58.53;95788.41;1763316;81;21019;-72
2022/08/12 07:59:07;;;;;;;2.77;2.52;;;;;;;21.42;58.50;95783.85;1763388;81;21026;-72
2022/08/12 08:01:36;;;;;;;6.35;2.52;;;;;;;21.56;57.48;95783.02;1763631;81;20995;-72
2022/08/12 08:06:51;;;;;;;2.25;2.08;;;;;;;21.73;57.56;95773.97;1763718;81;21065;-72
2022/08/12 08:09:22;;;;;;;2.58;2.37;;;;;;;21.86;56.98;95776.30;1763135;81;21042;-72
2022/08/12 08:14:35;;;;;;;3.40;2.60;;;;;;;22.06;54.63;95768.38;1755587;81;21031;-72
2022/08/12 08:17:05;;;;;;;6.40;2.42;;;;;;;22.17;56.24;95773.94;1736599;83;20994;-72
2022/08/12 08:19:32;;;;;;;2.70;2.50;;;;;;;22.19;54.00;95777.44;1736717;83;21046;-71
2022/08/12 08:21:59;;;;;;;4.78;2.30;;;;;;;22.29;55.68;95779.08;1736748;83;21019;-71
2022/08/12 08:24:27;;;;;;;3.72;2.22;;;;;;;22.41;55.70;95772.94;1736204;83;21023;-71
2022/08/12 08:27:00;;;;;;;6.00;2.42;;;;;;;22.54;55.11;95777.55;1736788;83;21018;-72
2022/08/12 08:29:28;;;;;;;2.42;2.22;;;;;;;22.63;55.91;95779.67;1736564;83;20992;-72
2022/08/12 08:31:57;;;;;;;3.55;2.55;;;;;;;22.75;53.05;95782.89;1736366;83;20983;-72
2022/08/12 08:34:28;;;;;;;3.25;2.45;;;;;;;22.77;53.37;95783.67;1736655;83;21009;-72
2022/08/12 08:36:55;;;;;;;2.47;2.25;;;;;;;22.81;52.48;95779.83;1736745;83;21007;-72
2022/08/12 08:39:26;;;;;;;3.17;2.10;;;;;;;22.92;53.65;95778.28;1736470;82;21035;-72
2022/08/12 08:44:36;;;;;;;2.50;2.30;;;;;;;23.26;53.57;95776.98;1736440;83;21082;-72
2022/08/12 08:47:05;;;;;;;4.50;2.20;;;;;;;23.36;51.43;95777.21;1736422;83;21501;-74
2022/08/12 08:49:35;;;;;;;2.40;2.20;;;;;;;23.43;51.34;95774.01;1736322;83;20983;-73
2022/08/12 08:52:02;;;;;;;7.03;2.52;;;;;;;23.43;50.69;95771.31;1736774;82;21035;-74
2022/08/12 08:54:32;;;;;;;2.62;2.15;;;;;;;23.51;50.91;95769.45;1736203;83;21003;-73
2022/08/12 08:56:57;;;;;;;3.60;2.20;;;;;;;23.63;50.62;95769.98;1736714;82;20955;-74
2022/08/12 08:59:24;;;;;;;3.30;2.45;;;;;;;23.79;50.84;95772.55;1736889;82;21015;-73
2022/08/12 09:01:51;;;;;;;4.45;2.35;;;;;;;23.92;50.13;95775.27;1736719;82;21006;-73
2022/08/12 09:04:19;;;;;;;11.05;2.67;;;;;;;24.00;49.29;95773.39;1736175;83;20988;-73
2022/08/12 09:06:46;;;;;;;2.37;2.15;;;;;;;24.11;49.63;95780.23;1736427;82;21457;-74
2022/08/12 09:09:16;;;;;;;5.28;1.85;;;;;;;24.25;49.22;95775.24;1736706;83;21004;-73
2022/08/12 09:14:28;;;;;;;3.52;2.30;;;;;;;24.50;48.17;95775.76;1740176;81;21109;-74
2022/08/12 09:16:55;;;;;;;2.50;2.30;;;;;;;24.43;47.23;95771.24;1763372;81;21018;-73
2022/08/12 09:19:22;;;;;;;3.80;2.12;;;;;;;24.46;48.88;95768.84;1763518;81;21050;-73
2022/08/12 09:21:48;;;;;;;2.33;2.12;;;;;;;24.56;46.21;95772.12;1763011;81;21061;-74
2022/08/12 09:24:18;;;;;;;2.40;2.20;;;;;;;24.74;47.11;95771.28;1763593;81;21003;-74
2022/08/12 09:26:46;;;;;;;2.98;2.12;;;;;;;24.87;46.42;95761.80;1763205;81;21137;-74
2022/08/12 09:29:17;;;;;;;2.35;2.12;;;;;;;24.98;46.88;95760.55;1763192;81;21027;-74
2022/08/12 09:31:43;;;;;;;2.22;2.00;;;;;;;25.09;44.99;95752.15;1763417;81;21030;-73
2022/08/12 09:34:10;;;;;;;3.50;2.10;;;;;;;25.11;44.76;95756.46;1763078;81;21014;-74
2022/08/12 09:36:39;;;;;;;3.25;2.10;;;;;;;25.28;45.16;95759.80;1763100;81;21034;-73
2022/08/12 09:39:07;;;;;;;3.02;1.90;;;;;;;25.41;46.71;95760.10;1763296;81;21014;-73
2022/08/12 09:41:40;;;;;;;4.12;2.17;;;;;;;25.60;46.31;95752.84;1763400;81;21034;-73
2022/08/12 09:46:52;;;;;;;32.23;29.48;;;;;;;25.72;43.16;95748.81;1763436;81;21014;-72
2022/08/12 09:49:20;;;;;;;2.33;1.70;;;;;;;25.86;44.35;95750.86;1762796;81;21034;-72
2022/08/12 09:51:47;;;;;;;1.77;1.65;;;;;;;26.03;43.45;95737.87;1763231;81;20983;-73
2022/08/12 09:54:16;;;;;;;3.80;1.67;;;;;;;26.16;40.29;95738.66;1763435;81;20995;-72
2022/08/12 09:56:48;;;;;;;2.20;1.80;;;;;;;26.23;40.40;95744.42;1763267;81;21050;-72
2022/08/12 09:59:13;;;;;;;5.03;2.27;;;;;;;26.34;41.80;95734.49;1762401;81;21023;-73
2022/08/12 10:01:40;;;;;;;3.05;1.80;;;;;;;26.40;41.55;95723.67;1763410;81;20979;-73
2022/08/12 10:04:09;;;;;;;4.65;1.98;;;;;;;26.41;41.25;95726.77;1763137;81;21054;-73
2022/08/12 10:06:38;;;;;;;1.87;1.70;;;;;;;26.52;42.54;95724.55;1763298;81;21524;-73
2022/08/12 10:09:07;;;;;;;2.85;1.70;;;;;;;26.76;42.84;95727.13;1763138;81;21038;-73
2022/08/12 10:14:19;;;;;;;2.62;1.65;;;;;;;26.94;39.46;95713.47;1763520;81;20983;-73
2022/08/12 10:16:46;;;;;;;3.58;1.98;;;;;;;27.07;39.35;95720.09;1763145;81;21010;-73
2022/08/12 10:19:14;;;;;;;2.30;1.82;;;;;;;27.09;38.26;95715.42;1763403;81;20999;-73
2022/08/12 10:21:42;;;;;;;2.30;1.90;;;;;;;27.13;38.68;95710.09;1763073;81;21085;-73
2022/08/12 10:24:14;;;;;;;2.35;1.70;;;;;;;27.26;40.56;95708.61;1763316;81;21043;-73
2022/08/12 10:29:35;;;;;;;1.52;1.42;;;;;;;27.23;37.44;95703.95;1763349;81;21010;-72
2022/08/12 10:32:03;;;;;;;3.67;1.60;;;;;;;27.28;37.88;95703.93;1763317;81;21034;-72
2022/08/12 10:34:30;;;;;;;2.70;1.70;;;;;;;27.28;38.15;95703.93;1763013;81;21003;-72
2022/08/12 10:36:59;;;;;;;2.17;1.75;;;;;;;27.25;36.94;95697.42;1763343;81;21472;-73
2022/08/12 10:39:31;;;;;;;1.70;1.60;;;;;;;27.34;37.92;95704.79;1763063;81;21537;-73
2022/08/12 10:44:52;;;;;;;2.62;1.60;;;;;;;27.60;38.06;95703.94;1763382;81;21038;-72
2022/08/12 10:47:19;;;;;;;4.20;1.55;;;;;;;27.78;37.60;95704.72;1763451;81;21018;-73
2022/08/12 10:49:47;;;;;;;1.70;1.52;;;;;;;27.83;37.12;95698.44;1763114;81;21042;-72
2022/08/12 10:52:14;;;;;;;6.25;1.62;;;;;;;27.97;36.87;95702.66;1763184;81;21078;-72
2022/08/12 10:54:42;;;;;;;3.42;1.70;;;;;;;28.23;38.27;95700.41;1763502;81;21014;-72
2022/08/12 10:57:09;;;;;;;1.55;1.45;;;;;;;28.38;35.81;95701.78;1763398;81;20943;-72
2022/08/12 10:59:36;;;;;;;1.72;1.40;;;;;;;28.33;36.21;95699.97;1763349;81;21007;-72
2022/08/12 11:02:02;;;;;;;2.05;1.67;;;;;;;28.50;37.13;95705.31;1763325;81;21006;-72
2022/08/12 11:04:30;;;;;;;1.90;1.70;;;;;;;28.57;36.03;95686.09;1763177;81;21011;-72
2022/08/12 11:06:58;;;;;;;1.98;1.60;;;;;;;28.59;35.35;95684.62;1763177;81;20995;-73
2022/08/12 11:09:31;;;;;;;2.15;1.50;;;;;;;28.68;34.94;95691.45;1763572;81;21010;-72
2022/08/12 11:12:05;;;;;;;3.42;1.45;;;;;;;28.75;34.85;95690.38;1763329;81;20991;-72
2022/08/12 11:14:34;;;;;;;2.25;1.55;;;;;;;28.85;33.88;95684.51;1763292;81;20971;-72
2022/08/12 11:17:06;;;;;;;1.52;1.30;;;;;;;28.95;34.02;95682.30;1738385;81;21571;-72
2022/08/12 11:19:36;;;;;;;1.52;1.30;;;;;;;29.08;33.47;95683.80;1736452;82;21027;-72
2022/08/12 11:22:04;;;;;;;1.30;1.20;;;;;;;29.19;33.09;95673.81;1736581;83;21042;-72
2022/08/12 11:24:30;;;;;;;1.70;1.20;;;;;;;29.14;31.99;95674.73;1736427;83;20999;-73
2022/08/12 11:26:59;;;;;;;1.77;1.40;;;;;;;29.20;31.53;95679.59;1736671;83;21464;-72
2022/08/12 11:29:28;;;;;;;1.70;1.42;;;;;;;29.23;31.02;95673.39;1736677;82;21540;-72
2022/08/12 11:31:55;;;;;;;1.30;1.20;;;;;;;29.34;32.03;95685.48;1736784;82;21026;-72
2022/08/12 11:34:22;;;;;;;1.45;1.30;;;;;;;29.47;31.20;95678.41;1736501;83;20968;-72
2022/08/12 11:36:55;;;;;;;1.37;1.20;;;;;;;29.55;31.53;95676.33;1736754;82;21473;-72
2022/08/12 11:39:23;;;;;;;1.47;1.37;;;;;;;29.49;29.69;95680.99;1736650;82;20995;-72
2022/08/12 11:41:50;;;;;;;3.52;1.35;;;;;;;29.45;31.86;95681.76;1736691;83;20982;-72
2022/08/12 11:44:17;;;;;;;1.62;1.22;;;;;;;29.67;31.85;95675.73;1736707;82;21505;-72
2022/08/12 11:46:44;;;;;;;1.87;1.40;;;;;;;29.94;31.95;95665.47;1736762;83;20983;-73
2022/08/12 11:49:11;;;;;;;1.60;1.50;;;;;;;30.21;30.13;95666.03;1736479;83;21011;-72
2022/08/12 11:51:38;;;;;;;4.67;1.47;;;;;;;30.48;31.96;95668.50;1736730;82;21019;-72
2022/08/12 11:54:05;;;;;;;2.42;1.37;;;;;;;30.64;31.25;95668.70;1736587;82;21051;-73
2022/08/12 11:56:32;;;;;;;2.60;1.22;;;;;;;30.68;30.39;95668.77;1736684;83;20990;-73
2022/08/12 11:58:59;;;;;;;1.87;1.20;;;;;;;30.46;29.99;95663.70;1736785;83;21003;-73
2022/08/12 12:01:26;;;;;;;3.17;1.30;;;;;;;30.38;30.50;95666.66;1736431;83;21016;-73
2022/08/12 12:03:52;;;;;;;1.35;1.15;;;;;;;30.15;30.32;95669.36;1736632;83;21003;-73
2022/08/12 12:06:22;;;;;;;21.33;2.12;;;;;;;29.93;31.24;95665.09;1736869;83;21054;-73
2022/08/12 12:08:49;;;;;;;2.67;1.20;;;;;;;29.78;31.40;95660.60;1736614;83;21465;-73
2022/08/12 12:11:16;;;;;;;21.23;2.22;;;;;;;29.66;28.97;95668.55;1736339;83;21062;-73
2022/08/12 12:13:43;;;;;;;2.10;1.10;;;;;;;29.30;29.77;95665.01;1736629;82;21025;-73
2022/08/12 12:16:09;;;;;;;3.80;1.40;;;;;;;29.10;30.74;95658.69;1736283;81;20995;-72
2022/08/12 12:18:36;;;;;;;1.30;1.20;;;;;;;28.89;31.11;95662.84;1736639;83;21019;-71
2022/08/12 12:21:07;;;;;;;1.50;1.40;;;;;;;28.75;31.62;95663.73;1736823;83;20983;-72
2022/08/12 12:23:34;;;;;;;6.47;1.60;;;;;;;28.56;31.04;95661.82;1736749;83;20983;-71
2022/08/12 12:26:04;;;;;;;4.17;1.82;;;;;;;28.39;33.32;95668.71;1736413;83;21086;-71
2022/08/12 12:28:31;;;;;;;1.95;1.40;;;;;;;28.37;33.64;95666.63;1736639;82;21023;-71
2022/08/12 12:30:58;;;;;;;3.42;1.32;;;;;;;28.30;33.04;95670.39;1736422;83;21019;-71
2022/08/12 12:33:24;;;;;;;1.55;1.30;;;;;;;28.24;33.48;95669.56;1736582;83;21034;-72
2022/08/12 12:35:51;;;;;;;3.35;1.62;;;;;;;28.13;34.02;95663.73;1736560;83;21066;-72
2022/08/12 12:38:18;;;;;;;2.85;1.50;;;;;;;28.44;33.70;95656.47;1736559;82;20959;-72
2022/08/12 12:40:47;;;;;;;1.40;1.30;;;;;;;28.79;33.39;95659.75;1736647;83;21489;-72
2022/08/12 12:43:15;;;;;;;3.02;1.50;;;;;;;29.18;33.54;95655.30;1736589;83;20996;-72
2022/08/12 12:45:44;;;;;;;3.17;1.40;;;;;;;29.51;31.61;95658.61;1736226;83;20983;-72
2022/08/12 12:48:16;;;;;;;3.45;1.60;;;;;;;29.70;30.57;95655.03;1736626;82;21002;-72
2022/08/12 12:51:14;;;;;;;2.65;1.55;;;;;;;29.86;30.93;95654.44;1736716;82;21018;-73
2022/08/12 12:53:23;;;;;;;1.50;1.40;;;;;;;30.22;31.77;95648.72;1733715;83;21010;-72
2022/08/12 12:55:47;;;;;;;1.92;1.37;;;;;;;30.30;29.64;95650.22;1736166;82;21050;-73
2022/08/12 12:58:17;;;;;;;2.08;1.37;;;;;;;30.32;31.03;95647.36;1736807;83;20987;-72
2022/08/12 13:00:44;;;;;;;1.55;1.30;;;;;;;30.49;31.13;95646.58;1736675;83;20996;-72
2022/08/12 13:03:11;;;;;;;1.25;1.15;;;;;;;30.70;30.39;95641.39;1736663;83;21476;-72
2022/08/12 13:05:41;;;;;;;1.37;1.12;;;;;;;30.94;29.56;95630.80;1736438;82;21023;-72
2022/08/12 13:08:29;;;;;;;1.90;1.57;;;;;;;31.21;29.62;95642.69;1736655;83;21461;-73
2022/08/12 13:11:03;;;;;;;1.35;1.17;;;;;;;31.30;28.44;95639.05;1736642;83;21528;-73
2022/08/12 13:13:32;;;;;;;8.18;1.50;;;;;;;31.23;28.72;95636.06;1736606;82;21473;-72
2022/08/12 13:16:00;;;;;;;1.52;1.32;;;;;;;31.36;29.38;95635.68;1743966;81;21070;-73
2022/08/12 13:18:35;;;;;;;1.98;1.22;;;;;;;31.47;29.46;95637.34;1763546;81;20987;-73
2022/08/12 13:20:57;;;;;;;1.85;1.10;;;;;;;31.52;28.21;95630.06;1762068;81;21022;-73
2022/08/12 13:23:25;;;;;;;9.15;1.67;;;;;;;31.31;28.47;95628.98;1763390;81;21489;-73
2022/08/12 13:25:52;;;;;;;3.40;1.12;;;;;;;31.33;29.08;95637.36;1763317;81;21078;-73
2022/08/12 13:28:27;;;;;;;1.72;1.10;;;;;;;31.52;27.61;95632.78;1763295;81;21034;-73
2022/08/12 13:30:58;;;;;;;1.80;1.30;;;;;;;31.72;27.02;95626.14;1763308;81;21026;-72
2022/08/12 13:33:29;;;;;;;2.10;1.00;;;;;;;32.05;28.12;95625.91;1763331;81;20991;-72
2022/08/12 13:36:00;;;;;;;3.12;1.17;;;;;;;32.07;27.02;95622.52;1763515;81;20983;-72
2022/08/12 13:38:45;;;;;;;1.42;1.10;;;;;;;32.04;26.44;95622.84;1763448;81;21023;-72